sensor_id;sensor_type;location;lat;lon;timestamp;temperature;humidity
55828;DHT22;41758;51.992;5.890;2022-09-09T00:02:10;22.40;69.50
55828;DHT22;41758;51.992;5.890;2022-09-09T00:04:41;22.40;69.30
55828;DHT22;41758;51.992;5.890;2022-09-09T00:15:38;22.40;69.20
55828;DHT22;41758;51.992;5.890;2022-09-09T00:18:18;22.40;69.20
55828;DHT22;41758;51.992;5.890;2022-09-09T00:23:30;22.50;69.30
55828;DHT22;41758;51.992;5.890;2022-09-09T00:31:34;22.60;69.00
55828;DHT22;41758;51.992;5.890;2022-09-09T00:34:12;22.60;69.20
55828;DHT22;41758;51.992;5.890;2022-09-09T00:36:40;22.70;69.20
55828;DHT22;41758;51.992;5.890;2022-09-09T00:39:26;22.70;69.30
55828;DHT22;41758;51.992;5.890;2022-09-09T00:44:53;22.80;69.10
55828;DHT22;41758;51.992;5.890;2022-09-09T00:47:31;22.90;68.90
55828;DHT22;41758;51.992;5.890;2022-09-09T00:50:09;22.90;68.90
55828;DHT22;41758;51.992;5.890;2022-09-09T00:58:02;22.90;68.90
55828;DHT22;41758;51.992;5.890;2022-09-09T01:00:31;22.90;68.90
55828;DHT22;41758;51.992;5.890;2022-09-09T01:05:55;23.00;68.80
55828;DHT22;41758;51.992;5.890;2022-09-09T01:10:54;22.90;68.80
55828;DHT22;41758;51.992;5.890;2022-09-09T01:13:30;22.90;68.80
55828;DHT22;41758;51.992;5.890;2022-09-09T01:16:01;23.00;68.70
55828;DHT22;41758;51.992;5.890;2022-09-09T01:18:36;23.00;68.70
55828;DHT22;41758;51.992;5.890;2022-09-09T01:27:06;23.00;68.30
55828;DHT22;41758;51.992;5.890;2022-09-09T01:29:33;23.00;68.30
55828;DHT22;41758;51.992;5.890;2022-09-09T01:34:30;22.90;68.40
55828;DHT22;41758;51.992;5.890;2022-09-09T01:37:07;22.90;68.20
55828;DHT22;41758;51.992;5.890;2022-09-09T01:39:35;22.90;68.20
55828;DHT22;41758;51.992;5.890;2022-09-09T01:42:07;22.90;68.30
55828;DHT22;41758;51.992;5.890;2022-09-09T01:44:34;22.90;68.30
55828;DHT22;41758;51.992;5.890;2022-09-09T01:47:01;22.80;68.40
55828;DHT22;41758;51.992;5.890;2022-09-09T01:49:27;22.80;68.40
55828;DHT22;41758;51.992;5.890;2022-09-09T01:51:55;22.80;68.50
55828;DHT22;41758;51.992;5.890;2022-09-09T01:54:30;22.70;68.60
55828;DHT22;41758;51.992;5.890;2022-09-09T01:57:22;22.80;68.60
55828;DHT22;41758;51.992;5.890;2022-09-09T02:00:06;22.70;68.40
55828;DHT22;41758;51.992;5.890;2022-09-09T02:03:05;22.70;68.60
55828;DHT22;41758;51.992;5.890;2022-09-09T02:08:47;22.60;68.60
55828;DHT22;41758;51.992;5.890;2022-09-09T02:11:17;22.60;68.60
55828;DHT22;41758;51.992;5.890;2022-09-09T02:14:12;22.60;68.60
55828;DHT22;41758;51.992;5.890;2022-09-09T02:16:54;22.60;68.60
55828;DHT22;41758;51.992;5.890;2022-09-09T02:19:47;22.60;68.50
55828;DHT22;41758;51.992;5.890;2022-09-09T02:22:24;22.60;68.60
55828;DHT22;41758;51.992;5.890;2022-09-09T02:24:50;22.60;68.70
55828;DHT22;41758;51.992;5.890;2022-09-09T02:27:23;22.60;68.70
55828;DHT22;41758;51.992;5.890;2022-09-09T02:29:50;22.60;68.80
55828;DHT22;41758;51.992;5.890;2022-09-09T02:32:23;22.60;68.70
55828;DHT22;41758;51.992;5.890;2022-09-09T02:34:56;22.60;68.70
55828;DHT22;41758;51.992;5.890;2022-09-09T02:37:27;22.60;68.80
55828;DHT22;41758;51.992;5.890;2022-09-09T02:39:55;22.50;68.80
55828;DHT22;41758;51.992;5.890;2022-09-09T02:42:22;22.50;68.60
55828;DHT22;41758;51.992;5.890;2022-09-09T02:44:50;22.50;68.50
55828;DHT22;41758;51.992;5.890;2022-09-09T02:47:35;22.50;68.50
55828;DHT22;41758;51.992;5.890;2022-09-09T02:50:35;22.60;68.40
55828;DHT22;41758;51.992;5.890;2022-09-09T02:53:22;22.50;68.30
55828;DHT22;41758;51.992;5.890;2022-09-09T02:56:04;22.40;68.40
55828;DHT22;41758;51.992;5.890;2022-09-09T02:58:37;22.40;68.30
55828;DHT22;41758;51.992;5.890;2022-09-09T03:01:05;22.40;68.50
55828;DHT22;41758;51.992;5.890;2022-09-09T03:03:31;22.40;68.50
55828;DHT22;41758;51.992;5.890;2022-09-09T03:05:59;22.40;68.60
55828;DHT22;41758;51.992;5.890;2022-09-09T03:08:26;22.40;68.60
55828;DHT22;41758;51.992;5.890;2022-09-09T03:10:54;22.40;68.60
55828;DHT22;41758;51.992;5.890;2022-09-09T03:13:20;22.40;68.70
55828;DHT22;41758;51.992;5.890;2022-09-09T03:15:47;22.40;68.70
55828;DHT22;41758;51.992;5.890;2022-09-09T03:18:16;22.40;68.60
55828;DHT22;41758;51.992;5.890;2022-09-09T03:20:46;22.40;68.60
55828;DHT22;41758;51.992;5.890;2022-09-09T03:23:14;22.40;68.60
55828;DHT22;41758;51.992;5.890;2022-09-09T03:25:46;22.40;68.30
55828;DHT22;41758;51.992;5.890;2022-09-09T03:28:13;22.50;68.20
55828;DHT22;41758;51.992;5.890;2022-09-09T03:30:39;22.40;68.30
55828;DHT22;41758;51.992;5.890;2022-09-09T03:33:05;22.40;68.20
55828;DHT22;41758;51.992;5.890;2022-09-09T03:35:32;22.50;68.10
55828;DHT22;41758;51.992;5.890;2022-09-09T03:37:58;22.40;68.10
55828;DHT22;41758;51.992;5.890;2022-09-09T03:40:25;22.50;68.10
55828;DHT22;41758;51.992;5.890;2022-09-09T03:42:50;22.50;68.10
55828;DHT22;41758;51.992;5.890;2022-09-09T03:45:17;22.50;68.00
55828;DHT22;41758;51.992;5.890;2022-09-09T03:47:42;22.50;68.00
55828;DHT22;41758;51.992;5.890;2022-09-09T03:50:09;22.50;68.30
55828;DHT22;41758;51.992;5.890;2022-09-09T03:52:40;22.50;68.30
55828;DHT22;41758;51.992;5.890;2022-09-09T03:55:13;22.50;68.30
55828;DHT22;41758;51.992;5.890;2022-09-09T03:57:39;22.50;68.10
55828;DHT22;41758;51.992;5.890;2022-09-09T04:00:08;22.50;68.00
55828;DHT22;41758;51.992;5.890;2022-09-09T04:02:45;22.60;68.00
55828;DHT22;41758;51.992;5.890;2022-09-09T04:05:17;22.60;68.00
55828;DHT22;41758;51.992;5.890;2022-09-09T04:07:45;22.60;68.10
55828;DHT22;41758;51.992;5.890;2022-09-09T04:10:11;22.60;68.00
55828;DHT22;41758;51.992;5.890;2022-09-09T04:12:39;22.60;67.90
55828;DHT22;41758;51.992;5.890;2022-09-09T04:15:05;22.60;68.00
55828;DHT22;41758;51.992;5.890;2022-09-09T04:17:31;22.70;67.90
55828;DHT22;41758;51.992;5.890;2022-09-09T04:19:58;22.70;67.80
55828;DHT22;41758;51.992;5.890;2022-09-09T04:22:23;22.70;67.70
55828;DHT22;41758;51.992;5.890;2022-09-09T04:24:49;22.70;67.60
55828;DHT22;41758;51.992;5.890;2022-09-09T04:27:17;22.70;67.70
55828;DHT22;41758;51.992;5.890;2022-09-09T04:29:43;22.70;67.60
55828;DHT22;41758;51.992;5.890;2022-09-09T04:32:09;22.70;67.60
55828;DHT22;41758;51.992;5.890;2022-09-09T04:34:34;22.70;67.60
55828;DHT22;41758;51.992;5.890;2022-09-09T04:37:00;22.70;67.60
55828;DHT22;41758;51.992;5.890;2022-09-09T04:39:26;22.70;67.60
55828;DHT22;41758;51.992;5.890;2022-09-09T04:41:52;22.70;67.60
55828;DHT22;41758;51.992;5.890;2022-09-09T04:44:20;22.70;67.50
55828;DHT22;41758;51.992;5.890;2022-09-09T04:46:46;22.80;67.50
55828;DHT22;41758;51.992;5.890;2022-09-09T04:49:12;22.70;67.40
55828;DHT22;41758;51.992;5.890;2022-09-09T04:51:38;22.70;67.40
55828;DHT22;41758;51.992;5.890;2022-09-09T04:54:04;22.80;67.50
55828;DHT22;41758;51.992;5.890;2022-09-09T04:56:31;22.70;67.50
55828;DHT22;41758;51.992;5.890;2022-09-09T04:58:58;22.80;67.50
55828;DHT22;41758;51.992;5.890;2022-09-09T05:01:36;22.80;67.40
55828;DHT22;41758;51.992;5.890;2022-09-09T05:04:04;22.80;67.40
55828;DHT22;41758;51.992;5.890;2022-09-09T05:06:32;22.80;67.50
55828;DHT22;41758;51.992;5.890;2022-09-09T05:08:59;22.80;67.50
55828;DHT22;41758;51.992;5.890;2022-09-09T05:11:30;22.80;67.50
55828;DHT22;41758;51.992;5.890;2022-09-09T05:14:06;22.80;67.40
55828;DHT22;41758;51.992;5.890;2022-09-09T05:16:33;22.90;67.50
55828;DHT22;41758;51.992;5.890;2022-09-09T05:18:58;22.90;67.40
55828;DHT22;41758;51.992;5.890;2022-09-09T05:21:27;22.90;67.40
55828;DHT22;41758;51.992;5.890;2022-09-09T05:23:54;22.90;67.30
55828;DHT22;41758;51.992;5.890;2022-09-09T05:26:22;22.90;67.20
55828;DHT22;41758;51.992;5.890;2022-09-09T05:28:50;22.90;67.00
55828;DHT22;41758;51.992;5.890;2022-09-09T05:31:17;22.90;67.30
55828;DHT22;41758;51.992;5.890;2022-09-09T05:33:45;22.90;67.30
55828;DHT22;41758;51.992;5.890;2022-09-09T05:36:18;22.90;67.20
55828;DHT22;41758;51.992;5.890;2022-09-09T05:38:46;22.90;67.30
55828;DHT22;41758;51.992;5.890;2022-09-09T05:41:13;23.00;67.20
55828;DHT22;41758;51.992;5.890;2022-09-09T05:43:41;22.90;66.90
55828;DHT22;41758;51.992;5.890;2022-09-09T05:46:13;22.90;67.00
55828;DHT22;41758;51.992;5.890;2022-09-09T05:48:41;23.00;66.80
55828;DHT22;41758;51.992;5.890;2022-09-09T05:51:12;23.00;66.80
55828;DHT22;41758;51.992;5.890;2022-09-09T05:53:39;23.00;66.70
55828;DHT22;41758;51.992;5.890;2022-09-09T05:56:10;23.00;66.50
55828;DHT22;41758;51.992;5.890;2022-09-09T05:58:38;23.00;66.50
55828;DHT22;41758;51.992;5.890;2022-09-09T06:01:12;23.00;66.50
55828;DHT22;41758;51.992;5.890;2022-09-09T06:03:44;22.90;66.30
55828;DHT22;41758;51.992;5.890;2022-09-09T06:06:13;22.90;66.30
55828;DHT22;41758;51.992;5.890;2022-09-09T06:08:42;22.90;66.00
55828;DHT22;41758;51.992;5.890;2022-09-09T06:11:18;22.90;66.00
55828;DHT22;41758;51.992;5.890;2022-09-09T06:13:44;22.90;66.20
55828;DHT22;41758;51.992;5.890;2022-09-09T06:16:17;22.90;66.00
55828;DHT22;41758;51.992;5.890;2022-09-09T06:18:43;22.90;66.00
55828;DHT22;41758;51.992;5.890;2022-09-09T06:21:21;22.90;66.10
55828;DHT22;41758;51.992;5.890;2022-09-09T06:23:48;23.00;66.60
55828;DHT22;41758;51.992;5.890;2022-09-09T06:26:15;23.00;66.80
55828;DHT22;41758;51.992;5.890;2022-09-09T06:28:44;23.00;66.80
55828;DHT22;41758;51.992;5.890;2022-09-09T06:31:13;23.10;66.90
55828;DHT22;41758;51.992;5.890;2022-09-09T06:33:41;23.10;66.70
55828;DHT22;41758;51.992;5.890;2022-09-09T06:36:13;23.10;66.60
55828;DHT22;41758;51.992;5.890;2022-09-09T06:38:41;23.10;66.70
55828;DHT22;41758;51.992;5.890;2022-09-09T06:41:09;23.10;67.40
55828;DHT22;41758;51.992;5.890;2022-09-09T06:43:35;23.10;67.50
55828;DHT22;41758;51.992;5.890;2022-09-09T06:46:03;23.10;67.90
55828;DHT22;41758;51.992;5.890;2022-09-09T06:48:32;23.10;67.60
55828;DHT22;41758;51.992;5.890;2022-09-09T06:51:08;23.10;67.90
55828;DHT22;41758;51.992;5.890;2022-09-09T06:53:36;23.10;67.70
55828;DHT22;41758;51.992;5.890;2022-09-09T06:58:43;23.20;67.60
55828;DHT22;41758;51.992;5.890;2022-09-09T07:01:19;23.20;68.10
55828;DHT22;41758;51.992;5.890;2022-09-09T07:03:48;23.30;68.30
55828;DHT22;41758;51.992;5.890;2022-09-09T07:06:15;23.30;68.40
55828;DHT22;41758;51.992;5.890;2022-09-09T07:08:43;23.20;68.20
55828;DHT22;41758;51.992;5.890;2022-09-09T07:11:10;23.20;68.60
55828;DHT22;41758;51.992;5.890;2022-09-09T07:13:36;23.20;68.70
55828;DHT22;41758;51.992;5.890;2022-09-09T07:16:08;23.30;68.80
55828;DHT22;41758;51.992;5.890;2022-09-09T07:18:34;23.30;68.50
55828;DHT22;41758;51.992;5.890;2022-09-09T07:21:02;23.30;68.50
55828;DHT22;41758;51.992;5.890;2022-09-09T07:23:29;23.40;68.40
55828;DHT22;41758;51.992;5.890;2022-09-09T07:25:59;23.40;68.00
55828;DHT22;41758;51.992;5.890;2022-09-09T07:28:25;23.40;68.10
55828;DHT22;41758;51.992;5.890;2022-09-09T07:31:00;23.50;68.20
55828;DHT22;41758;51.992;5.890;2022-09-09T07:33:34;23.50;68.00
55828;DHT22;41758;51.992;5.890;2022-09-09T07:38:32;23.40;67.60
55828;DHT22;41758;51.992;5.890;2022-09-09T07:41:06;23.50;67.70
55828;DHT22;41758;51.992;5.890;2022-09-09T07:43:32;23.50;67.70
55828;DHT22;41758;51.992;5.890;2022-09-09T07:45:59;23.50;67.80
55828;DHT22;41758;51.992;5.890;2022-09-09T07:48:27;23.50;67.80
55828;DHT22;41758;51.992;5.890;2022-09-09T07:51:10;23.60;67.60
55828;DHT22;41758;51.992;5.890;2022-09-09T07:53:38;23.60;67.40
55828;DHT22;41758;51.992;5.890;2022-09-09T07:56:06;23.60;67.60
55828;DHT22;41758;51.992;5.890;2022-09-09T07:58:32;23.60;66.90
55828;DHT22;41758;51.992;5.890;2022-09-09T08:00:58;23.60;67.50
55828;DHT22;41758;51.992;5.890;2022-09-09T08:03:24;23.60;67.90
55828;DHT22;41758;51.992;5.890;2022-09-09T08:05:50;23.60;67.50
55828;DHT22;41758;51.992;5.890;2022-09-09T08:08:17;23.60;67.50
55828;DHT22;41758;51.992;5.890;2022-09-09T08:10:42;23.60;67.40
55828;DHT22;41758;51.992;5.890;2022-09-09T08:13:09;23.70;67.40
55828;DHT22;41758;51.992;5.890;2022-09-09T08:15:35;23.70;67.40
55828;DHT22;41758;51.992;5.890;2022-09-09T08:18:02;23.70;67.30
55828;DHT22;41758;51.992;5.890;2022-09-09T08:20:29;23.60;67.50
55828;DHT22;41758;51.992;5.890;2022-09-09T08:22:56;23.60;67.70
55828;DHT22;41758;51.992;5.890;2022-09-09T08:25:21;23.60;67.10
55828;DHT22;41758;51.992;5.890;2022-09-09T08:27:47;23.60;67.20
55828;DHT22;41758;51.992;5.890;2022-09-09T08:30:13;23.70;67.50
55828;DHT22;41758;51.992;5.890;2022-09-09T08:32:40;23.70;67.30
55828;DHT22;41758;51.992;5.890;2022-09-09T08:35:06;23.80;67.00
55828;DHT22;41758;51.992;5.890;2022-09-09T08:37:33;23.80;67.00
55828;DHT22;41758;51.992;5.890;2022-09-09T08:39:58;23.70;66.60
55828;DHT22;41758;51.992;5.890;2022-09-09T08:51:04;23.70;66.30
55828;DHT22;41758;51.992;5.890;2022-09-09T08:53:44;23.70;66.70
55828;DHT22;41758;51.992;5.890;2022-09-09T08:56:17;23.80;66.90
55828;DHT22;41758;51.992;5.890;2022-09-09T08:58:56;23.80;67.00
55828;DHT22;41758;51.992;5.890;2022-09-09T09:01:39;23.80;67.00
55828;DHT22;41758;51.992;5.890;2022-09-09T09:04:29;23.80;67.20
55828;DHT22;41758;51.992;5.890;2022-09-09T09:07:09;23.80;66.80
55828;DHT22;41758;51.992;5.890;2022-09-09T09:10:07;23.80;66.70
55828;DHT22;41758;51.992;5.890;2022-09-09T09:12:40;23.80;66.60
55828;DHT22;41758;51.992;5.890;2022-09-09T09:15:29;23.70;67.20
55828;DHT22;41758;51.992;5.890;2022-09-09T09:17:56;23.80;66.50
55828;DHT22;41758;51.992;5.890;2022-09-09T09:23:04;23.80;66.40
55828;DHT22;41758;51.992;5.890;2022-09-09T09:25:35;23.80;66.20
55828;DHT22;41758;51.992;5.890;2022-09-09T09:28:16;23.80;66.40
55828;DHT22;41758;51.992;5.890;2022-09-09T09:31:10;23.80;66.10
55828;DHT22;41758;51.992;5.890;2022-09-09T09:33:53;23.80;66.60
55828;DHT22;41758;51.992;5.890;2022-09-09T09:36:34;23.80;66.40
55828;DHT22;41758;51.992;5.890;2022-09-09T09:39:03;23.80;66.40
55828;DHT22;41758;51.992;5.890;2022-09-09T09:41:35;23.80;66.60
55828;DHT22;41758;51.992;5.890;2022-09-09T09:44:05;23.80;66.00
55828;DHT22;41758;51.992;5.890;2022-09-09T09:46:31;23.80;66.30
55828;DHT22;41758;51.992;5.890;2022-09-09T09:49:09;23.90;66.30
55828;DHT22;41758;51.992;5.890;2022-09-09T09:51:37;23.90;66.10
55828;DHT22;41758;51.992;5.890;2022-09-09T09:57:14;24.00;66.20
55828;DHT22;41758;51.992;5.890;2022-09-09T09:59:42;24.10;66.30
55828;DHT22;41758;51.992;5.890;2022-09-09T10:04:44;24.10;65.40
55828;DHT22;41758;51.992;5.890;2022-09-09T10:07:15;24.10;65.50
55828;DHT22;41758;51.992;5.890;2022-09-09T10:09:42;24.10;66.10
55828;DHT22;41758;51.992;5.890;2022-09-09T10:14:52;24.10;65.40
55828;DHT22;41758;51.992;5.890;2022-09-09T10:23:17;23.90;65.40
55828;DHT22;41758;51.992;5.890;2022-09-09T10:32:56;23.90;65.50
55828;DHT22;41758;51.992;5.890;2022-09-09T10:37:38;23.90;65.40
55828;DHT22;41758;51.992;5.890;2022-09-09T10:40:23;24.00;65.30
55828;DHT22;41758;51.992;5.890;2022-09-09T10:43:00;24.00;65.10
55828;DHT22;41758;51.992;5.890;2022-09-09T10:45:41;24.00;65.00
55828;DHT22;41758;51.992;5.890;2022-09-09T10:55:59;24.00;65.10
55828;DHT22;41758;51.992;5.890;2022-09-09T10:59:04;24.00;65.10
55828;DHT22;41758;51.992;5.890;2022-09-09T11:01:44;24.00;65.40
55828;DHT22;41758;51.992;5.890;2022-09-09T11:06:49;24.10;65.50
55828;DHT22;41758;51.992;5.890;2022-09-09T11:09:22;24.10;65.10
55828;DHT22;41758;51.992;5.890;2022-09-09T11:11:54;24.10;65.10
55828;DHT22;41758;51.992;5.890;2022-09-09T11:17:02;24.10;64.50
55828;DHT22;41758;51.992;5.890;2022-09-09T11:19:40;24.10;64.90
55828;DHT22;41758;51.992;5.890;2022-09-09T11:22:22;24.00;64.40
55828;DHT22;41758;51.992;5.890;2022-09-09T11:24:54;23.90;65.00
55828;DHT22;41758;51.992;5.890;2022-09-09T11:38:49;23.60;67.50
55828;DHT22;41758;51.992;5.890;2022-09-09T11:41:17;23.70;67.50
55828;DHT22;41758;51.992;5.890;2022-09-09T11:43:53;23.60;67.10
55828;DHT22;41758;51.992;5.890;2022-09-09T11:46:22;23.70;66.70
55828;DHT22;41758;51.992;5.890;2022-09-09T11:49:00;23.70;66.90
55828;DHT22;41758;51.992;5.890;2022-09-09T11:51:28;23.80;66.90
55828;DHT22;41758;51.992;5.890;2022-09-09T11:53:56;23.90;66.90
55828;DHT22;41758;51.992;5.890;2022-09-09T11:56:30;24.00;66.70
55828;DHT22;41758;51.992;5.890;2022-09-09T11:59:05;24.00;66.40
55828;DHT22;41758;51.992;5.890;2022-09-09T12:01:41;24.00;66.10
55828;DHT22;41758;51.992;5.890;2022-09-09T12:07:02;23.80;66.30
55828;DHT22;41758;51.992;5.890;2022-09-09T12:09:48;23.70;66.20
55828;DHT22;41758;51.992;5.890;2022-09-09T12:19:41;24.10;66.30
55828;DHT22;41758;51.992;5.890;2022-09-09T12:22:51;24.00;66.40
55828;DHT22;41758;51.992;5.890;2022-09-09T12:25:35;24.00;66.40
55828;DHT22;41758;51.992;5.890;2022-09-09T12:30:34;23.90;66.80
55828;DHT22;41758;51.992;5.890;2022-09-09T12:33:10;23.80;66.60
55828;DHT22;41758;51.992;5.890;2022-09-09T12:35:38;23.90;66.20
55828;DHT22;41758;51.992;5.890;2022-09-09T12:38:05;23.90;66.20
55828;DHT22;41758;51.992;5.890;2022-09-09T12:40:35;24.00;66.50
55828;DHT22;41758;51.992;5.890;2022-09-09T12:43:15;24.10;66.00
55828;DHT22;41758;51.992;5.890;2022-09-09T12:45:42;24.20;66.30
55828;DHT22;41758;51.992;5.890;2022-09-09T12:48:09;24.30;65.90
55828;DHT22;41758;51.992;5.890;2022-09-09T12:50:49;24.40;65.90
55828;DHT22;41758;51.992;5.890;2022-09-09T12:53:22;24.60;65.40
55828;DHT22;41758;51.992;5.890;2022-09-09T12:55:56;24.60;64.70
55828;DHT22;41758;51.992;5.890;2022-09-09T12:58:23;24.60;64.70
55828;DHT22;41758;51.992;5.890;2022-09-09T13:00:51;24.50;64.60
55828;DHT22;41758;51.992;5.890;2022-09-09T13:03:19;24.50;64.70
55828;DHT22;41758;51.992;5.890;2022-09-09T13:05:46;24.50;64.90
55828;DHT22;41758;51.992;5.890;2022-09-09T13:08:13;24.50;64.70
55828;DHT22;41758;51.992;5.890;2022-09-09T13:10:46;24.40;64.40
55828;DHT22;41758;51.992;5.890;2022-09-09T13:13:17;24.40;64.20
55828;DHT22;41758;51.992;5.890;2022-09-09T13:15:50;24.30;64.30
55828;DHT22;41758;51.992;5.890;2022-09-09T13:18:21;24.10;64.50
55828;DHT22;41758;51.992;5.890;2022-09-09T13:20:48;24.00;65.00
55828;DHT22;41758;51.992;5.890;2022-09-09T13:23:15;23.90;65.50
55828;DHT22;41758;51.992;5.890;2022-09-09T13:25:55;23.90;66.00
55828;DHT22;41758;51.992;5.890;2022-09-09T13:28:25;23.90;65.90
55828;DHT22;41758;51.992;5.890;2022-09-09T13:31:04;24.00;66.20
55828;DHT22;41758;51.992;5.890;2022-09-09T13:33:34;24.10;66.30
55828;DHT22;41758;51.992;5.890;2022-09-09T13:36:08;24.10;66.30
55828;DHT22;41758;51.992;5.890;2022-09-09T13:41:20;24.30;66.20
55828;DHT22;41758;51.992;5.890;2022-09-09T13:43:47;24.40;66.10
55828;DHT22;41758;51.992;5.890;2022-09-09T13:46:38;24.40;65.90
55828;DHT22;41758;51.992;5.890;2022-09-09T13:51:39;24.40;65.60
55828;DHT22;41758;51.992;5.890;2022-09-09T13:54:06;24.40;65.70
55828;DHT22;41758;51.992;5.890;2022-09-09T13:56:35;24.40;65.60
55828;DHT22;41758;51.992;5.890;2022-09-09T13:59:04;24.40;65.70
55828;DHT22;41758;51.992;5.890;2022-09-09T14:01:29;24.40;65.60
55828;DHT22;41758;51.992;5.890;2022-09-09T14:03:56;24.40;65.50
55828;DHT22;41758;51.992;5.890;2022-09-09T14:06:22;24.40;65.70
55828;DHT22;41758;51.992;5.890;2022-09-09T14:08:51;24.40;65.60
55828;DHT22;41758;51.992;5.890;2022-09-09T14:11:18;24.40;64.50
55828;DHT22;41758;51.992;5.890;2022-09-09T14:13:44;24.30;65.00
55828;DHT22;41758;51.992;5.890;2022-09-09T14:16:10;24.30;65.50
55828;DHT22;41758;51.992;5.890;2022-09-09T14:18:36;24.30;65.50
55828;DHT22;41758;51.992;5.890;2022-09-09T14:21:03;24.30;65.30
55828;DHT22;41758;51.992;5.890;2022-09-09T14:23:29;24.30;64.90
55828;DHT22;41758;51.992;5.890;2022-09-09T14:25:55;24.30;65.00
55828;DHT22;41758;51.992;5.890;2022-09-09T14:28:21;24.30;64.80
55828;DHT22;41758;51.992;5.890;2022-09-09T14:30:47;24.30;64.90
55828;DHT22;41758;51.992;5.890;2022-09-09T14:33:14;24.30;65.00
55828;DHT22;41758;51.992;5.890;2022-09-09T14:35:41;24.30;65.10
55828;DHT22;41758;51.992;5.890;2022-09-09T14:38:08;24.30;65.20
55828;DHT22;41758;51.992;5.890;2022-09-09T14:40:37;24.30;65.20
55828;DHT22;41758;51.992;5.890;2022-09-09T14:43:04;24.40;65.20
55828;DHT22;41758;51.992;5.890;2022-09-09T14:45:30;24.40;65.30
55828;DHT22;41758;51.992;5.890;2022-09-09T14:47:55;24.40;65.20
55828;DHT22;41758;51.992;5.890;2022-09-09T14:50:22;24.50;64.90
55828;DHT22;41758;51.992;5.890;2022-09-09T14:52:48;24.50;64.50
55828;DHT22;41758;51.992;5.890;2022-09-09T14:55:14;24.60;64.60
55828;DHT22;41758;51.992;5.890;2022-09-09T14:57:40;24.50;64.30
55828;DHT22;41758;51.992;5.890;2022-09-09T15:00:08;24.50;64.40
55828;DHT22;41758;51.992;5.890;2022-09-09T15:02:34;24.60;64.40
55828;DHT22;41758;51.992;5.890;2022-09-09T15:05:00;24.60;64.50
55828;DHT22;41758;51.992;5.890;2022-09-09T15:07:27;24.60;64.50
55828;DHT22;41758;51.992;5.890;2022-09-09T15:09:54;24.70;64.50
55828;DHT22;41758;51.992;5.890;2022-09-09T15:12:20;24.70;64.70
55828;DHT22;41758;51.992;5.890;2022-09-09T15:14:46;24.70;64.60
55828;DHT22;41758;51.992;5.890;2022-09-09T15:17:13;24.70;64.50
55828;DHT22;41758;51.992;5.890;2022-09-09T15:19:38;24.70;64.70
55828;DHT22;41758;51.992;5.890;2022-09-09T15:22:07;24.70;64.40
55828;DHT22;41758;51.992;5.890;2022-09-09T15:24:33;24.60;64.10
55828;DHT22;41758;51.992;5.890;2022-09-09T15:27:00;24.40;64.60
55828;DHT22;41758;51.992;5.890;2022-09-09T15:29:26;24.30;64.90
55828;DHT22;41758;51.992;5.890;2022-09-09T15:31:53;24.10;65.40
55828;DHT22;41758;51.992;5.890;2022-09-09T15:34:19;23.90;65.50
55828;DHT22;41758;51.992;5.890;2022-09-09T15:36:45;23.80;65.90
55828;DHT22;41758;51.992;5.890;2022-09-09T15:39:13;23.80;66.20
55828;DHT22;41758;51.992;5.890;2022-09-09T15:41:44;23.70;66.30
55828;DHT22;41758;51.992;5.890;2022-09-09T15:44:11;23.60;66.70
55828;DHT22;41758;51.992;5.890;2022-09-09T15:46:59;23.60;67.10
55828;DHT22;41758;51.992;5.890;2022-09-09T15:49:25;23.50;67.30
55828;DHT22;41758;51.992;5.890;2022-09-09T15:51:57;23.50;67.50
55828;DHT22;41758;51.992;5.890;2022-09-09T15:54:24;23.40;67.70
55828;DHT22;41758;51.992;5.890;2022-09-09T15:56:56;23.40;67.70
55828;DHT22;41758;51.992;5.890;2022-09-09T15:59:27;23.40;67.60
55828;DHT22;41758;51.992;5.890;2022-09-09T16:01:56;23.30;67.30
55828;DHT22;41758;51.992;5.890;2022-09-09T16:04:23;23.20;67.80
55828;DHT22;41758;51.992;5.890;2022-09-09T16:07:04;23.10;67.80
55828;DHT22;41758;51.992;5.890;2022-09-09T16:09:31;22.80;68.00
55828;DHT22;41758;51.992;5.890;2022-09-09T16:11:58;22.40;67.90
55828;DHT22;41758;51.992;5.890;2022-09-09T16:14:26;22.30;68.50
55828;DHT22;41758;51.992;5.890;2022-09-09T16:16:52;22.20;69.00
55828;DHT22;41758;51.992;5.890;2022-09-09T16:19:18;22.20;69.20
55828;DHT22;41758;51.992;5.890;2022-09-09T16:21:46;22.10;69.20
55828;DHT22;41758;51.992;5.890;2022-09-09T16:24:14;22.20;69.40
55828;DHT22;41758;51.992;5.890;2022-09-09T16:26:47;22.20;69.50
55828;DHT22;41758;51.992;5.890;2022-09-09T16:29:14;22.30;69.60
55828;DHT22;41758;51.992;5.890;2022-09-09T16:31:40;22.30;69.60
55828;DHT22;41758;51.992;5.890;2022-09-09T16:34:07;22.40;69.60
55828;DHT22;41758;51.992;5.890;2022-09-09T16:36:35;22.40;69.70
55828;DHT22;41758;51.992;5.890;2022-09-09T16:39:04;22.40;69.90
55828;DHT22;41758;51.992;5.890;2022-09-09T16:41:31;22.50;69.90
55828;DHT22;41758;51.992;5.890;2022-09-09T16:44:02;22.50;70.00
55828;DHT22;41758;51.992;5.890;2022-09-09T16:46:29;22.60;70.10
55828;DHT22;41758;51.992;5.890;2022-09-09T16:48:57;22.60;70.20
55828;DHT22;41758;51.992;5.890;2022-09-09T16:51:26;22.60;70.30
55828;DHT22;41758;51.992;5.890;2022-09-09T16:53:53;22.70;70.30
55828;DHT22;41758;51.992;5.890;2022-09-09T16:56:24;22.70;70.40
55828;DHT22;41758;51.992;5.890;2022-09-09T16:58:55;22.70;70.40
55828;DHT22;41758;51.992;5.890;2022-09-09T17:01:22;22.70;70.60
55828;DHT22;41758;51.992;5.890;2022-09-09T17:03:52;22.70;70.60
55828;DHT22;41758;51.992;5.890;2022-09-09T17:06:18;22.70;70.60
55828;DHT22;41758;51.992;5.890;2022-09-09T17:08:44;22.70;70.60
55828;DHT22;41758;51.992;5.890;2022-09-09T17:11:15;22.80;70.70
55828;DHT22;41758;51.992;5.890;2022-09-09T17:13:42;22.80;70.80
55828;DHT22;41758;51.992;5.890;2022-09-09T17:16:08;22.70;70.80
55828;DHT22;41758;51.992;5.890;2022-09-09T17:18:35;22.70;70.80
55828;DHT22;41758;51.992;5.890;2022-09-09T17:21:06;22.70;70.80
55828;DHT22;41758;51.992;5.890;2022-09-09T17:23:34;22.70;70.70
55828;DHT22;41758;51.992;5.890;2022-09-09T17:26:14;22.70;70.70
55828;DHT22;41758;51.992;5.890;2022-09-09T17:28:40;22.70;70.70
55828;DHT22;41758;51.992;5.890;2022-09-09T17:31:08;22.70;70.70
55828;DHT22;41758;51.992;5.890;2022-09-09T17:33:37;22.70;70.70
55828;DHT22;41758;51.992;5.890;2022-09-09T17:38:36;22.70;70.70
55828;DHT22;41758;51.992;5.890;2022-09-09T17:41:03;22.70;70.70
55828;DHT22;41758;51.992;5.890;2022-09-09T17:43:29;22.70;70.70
55828;DHT22;41758;51.992;5.890;2022-09-09T17:45:55;22.70;70.70
55828;DHT22;41758;51.992;5.890;2022-09-09T17:48:20;22.70;70.60
55828;DHT22;41758;51.992;5.890;2022-09-09T17:50:46;22.80;70.60
55828;DHT22;41758;51.992;5.890;2022-09-09T17:53:12;22.80;70.60
55828;DHT22;41758;51.992;5.890;2022-09-09T17:55:37;22.80;70.50
55828;DHT22;41758;51.992;5.890;2022-09-09T17:58:03;22.80;70.30